Clayton, Missouri
Current Conditions -  °F | °C
As of 8:51 AM on Friday 19 Dec 2014 (Local Time) from KSTL Reporting Station
Haze Haze  
Wind Chill: 28°   Ceiling: 2900
Heat Index: 33°   Visibility: 5mi
Dew Point: 26°   Wind: 6mph
Humidity: 75%   Direction: 80°E
Pressure: 30.32"   Gusts: NA
Location:  38.65°N, 90.34°W
Report Text: KSTL 191451Z 08005KT 5SM HZ FEW012 BKN029 BKN060 01/M03 A3032 RMK AO2 SLP277 T00061033 51014
Loading
Personal Weather Stations






























Interactive Weather Map New forecast layout! Learn more

10-Day Weather Forecast

Advertisements
Track Severe Weather on mobile